Hua Hin, Thailand
Current Conditions -  °F | °C
As of 4:30 PM on Saturday 20 Dec 2014 (Local Time) from VTBU Reporting Station
Scattered Clouds Scattered Clouds  
Wind Chill: 86°   Ceiling: Unl
Heat Index: 88°   Visibility: 4mi
Dew Point: 66°   Wind: 8mph
Humidity: 51%   Direction: 320°NW
Pressure: 29.8"   Gusts: NA
Location:  12.57°N, 99.95°E
Report Text: VTBU 200930Z 32007KT 6000 FEW025 SCT300 30/19 Q1009 A2982
Loading
Personal Weather Stations






























Interactive Weather Map New forecast layout! Learn more

10-Day Weather Forecast

Advertisements
Track Severe Weather on mobile